Time;durP1;ratioP1;P1;durP2;ratioP2;P2;SDS_P1;SDS_P2;PMS_P1;PMS_P2;Temp;Humidity;BMP_temperature;BMP_pressure;BME280_temperature;BME280_humidity;BME280_pressure;Samples;Min_cycle;Max_cycle;Signal;HPM_P1;HPM_P2
2022/10/02 00:02:23;;;;;;;6.73;2.13;;;;;;;12.50;nan;98371.59;4994474;28;20232;-70
2022/10/02 00:05:20;;;;;;;7.47;2.23;;;;;;;12.51;nan;98381.22;5010277;28;20201;-71
2022/10/02 00:07:58;;;;;;;5.33;1.97;;;;;;;12.49;nan;98371.81;4995123;28;20211;-70
2022/10/02 00:10:39;;;;;;;5.40;1.90;;;;;;;12.46;nan;98378.41;4994963;28;20324;-71
2022/10/02 00:13:09;;;;;;;6.33;2.07;;;;;;;12.49;nan;98387.81;5009901;28;20628;-71
2022/10/02 00:15:37;;;;;;;5.53;1.50;;;;;;;12.51;nan;98397.22;4994984;28;20209;-71
2022/10/02 00:18:32;;;;;;;6.13;2.00;;;;;;;12.66;nan;98384.31;4994899;28;20220;-70
2022/10/02 00:21:37;;;;;;;4.63;1.60;;;;;;;12.66;nan;98389.66;4994319;28;20233;-70
2022/10/02 00:24:08;;;;;;;6.87;2.63;;;;;;;12.63;nan;98376.78;5010094;28;20257;-70
2022/10/02 00:26:41;;;;;;;5.00;1.80;;;;;;;12.61;nan;98392.19;4994860;28;20199;-70
2022/10/02 00:29:30;;;;;;;8.07;1.80;;;;;;;12.51;nan;98380.41;4994511;28;20693;-70
2022/10/02 00:32:15;;;;;;;5.97;1.70;;;;;;;12.52;nan;98380.19;5009919;28;20207;-70
2022/10/02 00:35:00;;;;;;;9.67;2.03;;;;;;;12.49;nan;98385.97;4994738;28;20212;-70
2022/10/02 00:37:54;;;;;;;7.03;1.80;;;;;;;12.50;nan;98395.59;4994385;28;20199;-70
2022/10/02 00:40:53;;;;;;;9.23;2.30;;;;;;;12.48;nan;98394.19;4994195;28;20224;-70
2022/10/02 00:43:34;;;;;;;10.43;2.27;;;;;;;12.48;nan;98397.66;4993279;28;20689;-70
2022/10/02 00:46:41;;;;;;;11.83;2.17;;;;;;;12.41;nan;98386.28;4995068;28;20205;-70
2022/10/02 00:49:07;;;;;;;6.03;2.10;;;;;;;12.38;nan;98376.03;4993598;28;20671;-70
2022/10/02 00:51:47;;;;;;;5.73;1.63;;;;;;;12.43;nan;98386.06;4994027;28;20315;-70
2022/10/02 00:54:14;;;;;;;5.63;1.90;;;;;;;12.38;nan;98385.91;5009575;28;20193;-70
2022/10/02 00:56:57;;;;;;;10.10;2.07;;;;;;;12.46;nan;98386.41;4994364;28;20208;-70
2022/10/02 00:59:44;;;;;;;5.43;1.77;;;;;;;12.52;nan;98388.19;5009379;28;20186;-70
2022/10/02 01:02:36;;;;;;;7.10;1.50;;;;;;;12.51;nan;98391.91;4994249;28;20279;-70
2022/10/02 01:05:07;;;;;;;8.80;2.07;;;;;;;12.57;nan;98395.53;4994287;28;20196;-70
2022/10/02 01:07:39;;;;;;;3.80;1.80;;;;;;;12.61;nan;98404.72;4994002;28;20192;-71
2022/10/02 01:10:06;;;;;;;7.83;1.70;;;;;;;12.57;nan;98409.66;4994170;28;20237;-70
2022/10/02 01:12:33;;;;;;;4.13;1.60;;;;;;;12.66;nan;98403.00;4994194;28;20211;-70
2022/10/02 01:14:59;;;;;;;4.50;1.70;;;;;;;12.73;nan;98402.91;4994052;28;20208;-70
2022/10/02 01:17:30;;;;;;;10.17;2.60;;;;;;;12.66;nan;98397.66;4994065;28;20211;-70
2022/10/02 01:20:03;;;;;;;5.53;1.83;;;;;;;12.72;nan;98401.28;4994095;28;20231;-70
2022/10/02 01:22:57;;;;;;;7.93;2.23;;;;;;;12.72;nan;98402.13;4993847;28;20209;-70
2022/10/02 01:25:24;;;;;;;4.60;1.50;;;;;;;12.66;nan;98394.19;4994094;28;20206;-71
2022/10/02 01:27:53;;;;;;;5.00;2.00;;;;;;;12.70;nan;98385.50;4994040;28;20216;-70
2022/10/02 01:30:21;;;;;;;7.20;1.80;;;;;;;12.71;nan;98386.34;4993913;28;20236;-71
2022/10/02 01:32:58;;;;;;;6.90;1.70;;;;;;;12.75;nan;98382.97;4993956;28;20215;-71
2022/10/02 01:35:30;;;;;;;5.43;1.70;;;;;;;12.81;nan;98398.09;4993951;28;20195;-71
2022/10/02 01:37:58;;;;;;;5.20;1.47;;;;;;;12.78;nan;98397.72;4993975;28;20194;-70
2022/10/02 01:40:34;;;;;;;7.93;1.90;;;;;;;12.83;nan;98400.53;5008752;28;20226;-71
2022/10/02 01:43:32;;;;;;;4.47;1.60;;;;;;;12.78;nan;98390.53;4993978;28;20228;-71
2022/10/02 01:46:11;;;;;;;8.47;1.80;;;;;;;12.79;nan;98392.16;4993325;28;20580;-70
2022/10/02 01:48:52;;;;;;;5.80;1.70;;;;;;;12.83;nan;98401.34;4993956;28;20219;-71
2022/10/02 01:51:28;;;;;;;3.43;1.50;;;;;;;12.85;nan;98399.25;5008877;28;20236;-71
2022/10/02 01:54:21;;;;;;;4.57;1.53;;;;;;;12.84;nan;98402.97;5008545;28;20197;-71
2022/10/02 01:56:51;;;;;;;5.47;2.03;;;;;;;12.88;nan;98404.16;4994391;28;20205;-70
2022/10/02 01:59:38;;;;;;;5.50;2.00;;;;;;;12.85;nan;98414.47;5008810;28;20184;-71
2022/10/02 02:02:14;;;;;;;5.43;1.60;;;;;;;12.91;nan;98416.22;5011776;28;20194;-71
2022/10/02 02:04:54;;;;;;;5.03;1.80;;;;;;;12.86;nan;98408.91;4997179;28;20196;-71
2022/10/02 02:07:40;;;;;;;7.37;1.63;;;;;;;12.92;nan;98405.34;4997299;28;20252;-70
2022/10/02 02:10:36;;;;;;;3.33;1.70;;;;;;;12.86;nan;98410.75;5012270;28;20232;-70
2022/10/02 02:13:44;;;;;;;7.17;1.97;;;;;;;12.81;nan;98410.63;4995233;28;20281;-70
2022/10/02 02:16:21;;;;;;;4.90;1.67;;;;;;;12.78;nan;98414.56;4995594;28;20872;-70
2022/10/02 02:19:05;;;;;;;5.87;1.90;;;;;;;12.84;nan;98424.31;4997754;28;20194;-70
2022/10/02 02:22:01;;;;;;;4.33;1.57;;;;;;;12.91;nan;98419.72;4997081;28;20234;-71
2022/10/02 02:24:33;;;;;;;4.83;1.90;;;;;;;12.89;nan;98410.31;4996501;28;20219;-71
2022/10/02 02:27:02;;;;;;;5.97;1.80;;;;;;;12.86;nan;98419.59;4996729;28;20284;-71
2022/10/02 02:29:34;;;;;;;6.50;1.73;;;;;;;12.87;nan;98407.88;5011547;28;20235;-71
2022/10/02 02:32:06;;;;;;;6.80;2.00;;;;;;;12.84;nan;98416.31;4996980;28;20190;-70
2022/10/02 02:34:39;;;;;;;6.73;1.80;;;;;;;12.87;nan;98429.22;5011409;28;20190;-70
2022/10/02 02:37:10;;;;;;;8.03;1.90;;;;;;;12.99;nan;98426.63;5011542;28;20195;-70
2022/10/02 02:39:57;;;;;;;6.17;1.70;;;;;;;12.94;nan;98418.47;4996496;28;21629;-71
2022/10/02 02:42:29;;;;;;;5.07;1.83;;;;;;;12.96;nan;98422.53;4996763;28;20195;-71
2022/10/02 02:45:04;;;;;;;4.40;1.50;;;;;;;12.96;nan;98409.19;4996494;28;20664;-71
2022/10/02 02:48:12;;;;;;;4.87;1.70;;;;;;;12.98;nan;98404.47;4996694;28;20200;-71
2022/10/02 02:50:43;;;;;;;6.33;1.70;;;;;;;12.95;nan;98415.56;4994076;28;20236;-71
2022/10/02 02:53:16;;;;;;;6.73;1.80;;;;;;;12.94;nan;98408.59;4995288;28;20217;-71
2022/10/02 02:55:49;;;;;;;9.10;1.83;;;;;;;12.95;nan;98409.41;5011599;28;20217;-70
2022/10/02 02:58:25;;;;;;;6.37;1.67;;;;;;;12.90;nan;98410.09;4996392;28;20194;-70
2022/10/02 03:00:52;;;;;;;8.27;2.00;;;;;;;12.94;nan;98413.94;4996265;28;20226;-70
2022/10/02 03:03:18;;;;;;;6.30;1.90;;;;;;;12.95;nan;98414.75;5011095;28;20220;-71
2022/10/02 03:05:49;;;;;;;5.37;1.60;;;;;;;13.02;nan;98427.00;4996289;28;20209;-71
2022/10/02 03:08:27;;;;;;;7.30;1.67;;;;;;;13.01;nan;98424.53;4996286;28;20194;-70
2022/10/02 03:11:12;;;;;;;8.00;2.03;;;;;;;13.00;nan;98430.94;4995667;28;20650;-71
2022/10/02 03:13:44;;;;;;;7.60;2.13;;;;;;;13.00;nan;98426.41;4996125;28;20216;-71
2022/10/02 03:16:25;;;;;;;6.07;1.53;;;;;;;13.08;nan;98436.78;4996190;28;20211;-70
2022/10/02 03:19:02;;;;;;;7.90;1.90;;;;;;;13.04;nan;98434.78;5010679;28;20198;-70
2022/10/02 03:21:54;;;;;;;7.20;2.07;;;;;;;13.06;nan;98427.38;4995854;28;20229;-70
2022/10/02 03:24:29;;;;;;;5.13;1.53;;;;;;;12.97;nan;98429.53;5010675;28;20330;-70
2022/10/02 03:27:06;;;;;;;7.20;1.60;;;;;;;12.97;nan;98426.06;4995979;28;20198;-70
2022/10/02 03:30:02;;;;;;;5.67;1.70;;;;;;;13.00;nan;98415.75;4995475;28;20288;-71
2022/10/02 03:32:30;;;;;;;7.03;1.73;;;;;;;13.03;nan;98422.50;4995847;28;20556;-70
2022/10/02 03:34:57;;;;;;;7.97;1.60;;;;;;;13.06;nan;98422.84;4995431;28;20208;-70
2022/10/02 03:37:28;;;;;;;8.37;2.27;;;;;;;13.05;nan;98415.88;4995618;28;20297;-71
2022/10/02 03:39:58;;;;;;;4.87;1.53;;;;;;;13.06;nan;98422.84;4995559;28;20249;-71
2022/10/02 03:42:27;;;;;;;11.60;2.07;;;;;;;13.08;nan;98422.63;4995475;28;20210;-70
2022/10/02 03:44:53;;;;;;;7.93;1.90;;;;;;;13.02;nan;98420.88;4995501;28;20572;-71
2022/10/02 03:47:20;;;;;;;7.70;2.03;;;;;;;12.97;nan;98413.50;4995171;28;20220;-70
2022/10/02 03:49:46;;;;;;;4.47;1.53;;;;;;;12.96;nan;98409.19;4995289;28;20234;-70
2022/10/02 03:52:22;;;;;;;5.53;1.83;;;;;;;12.96;nan;98411.03;4995411;28;20206;-70
2022/10/02 03:54:56;;;;;;;4.47;1.60;;;;;;;12.90;nan;98410.09;4995010;28;20214;-71
2022/10/02 03:57:24;;;;;;;5.07;1.73;;;;;;;12.89;nan;98413.00;4995353;28;20197;-70
2022/10/02 04:00:04;;;;;;;6.63;1.93;;;;;;;12.88;nan;98420.16;4995270;28;20328;-71
2022/10/02 04:02:45;;;;;;;6.83;2.13;;;;;;;12.91;nan;98418.91;4995310;28;20198;-70
2022/10/02 04:05:27;;;;;;;9.83;2.07;;;;;;;12.90;nan;98412.78;4995750;28;20197;-71
2022/10/02 04:07:59;;;;;;;5.80;2.10;;;;;;;12.96;nan;98411.88;4995166;28;20298;-71
2022/10/02 04:10:32;;;;;;;7.73;1.93;;;;;;;12.89;nan;98416.47;4994614;28;20238;-70
2022/10/02 04:13:07;;;;;;;6.10;1.60;;;;;;;12.91;nan;98421.56;4995084;28;20195;-70
2022/10/02 04:15:51;;;;;;;9.83;1.97;;;;;;;12.87;nan;98420.38;5009498;28;20198;-71
2022/10/02 04:18:22;;;;;;;7.13;1.97;;;;;;;12.86;nan;98426.78;5009041;28;20206;-70
2022/10/02 04:20:57;;;;;;;5.70;2.00;;;;;;;12.85;nan;98425.94;4994855;28;20230;-70
2022/10/02 04:23:33;;;;;;;5.80;1.50;;;;;;;12.83;nan;98433.38;4993850;28;20704;-70
2022/10/02 04:26:07;;;;;;;5.00;1.87;;;;;;;12.84;nan;98434.19;4994825;28;20198;-70
2022/10/02 04:28:44;;;;;;;7.83;1.97;;;;;;;12.84;nan;98426.19;4994835;28;20204;-70
2022/10/02 04:31:12;;;;;;;4.80;2.00;;;;;;;12.85;nan;98422.47;4994337;28;20690;-70
2022/10/02 04:33:39;;;;;;;5.43;1.70;;;;;;;12.86;nan;98427.59;4995246;28;20206;-71
2022/10/02 04:36:38;;;;;;;7.07;1.90;;;;;;;12.88;nan;98425.50;4994581;28;20210;-71
2022/10/02 04:39:33;;;;;;;5.27;1.73;;;;;;;12.90;nan;98435.97;4994245;28;20661;-70
2022/10/02 04:42:31;;;;;;;7.03;1.67;;;;;;;12.87;nan;98429.22;4994636;28;20523;-71
2022/10/02 04:45:15;;;;;;;4.50;1.83;;;;;;;12.97;nan;98434.06;4993474;28;20221;-71
2022/10/02 04:48:05;;;;;;;6.47;1.80;;;;;;;12.87;nan;98428.41;5009202;28;20199;-70
2022/10/02 04:50:56;;;;;;;6.47;1.90;;;;;;;12.84;nan;98435.00;4994337;28;20242;-70
2022/10/02 04:53:53;;;;;;;3.73;1.57;;;;;;;12.82;nan;98434.41;4994422;28;20198;-71
2022/10/02 04:56:47;;;;;;;3.40;1.50;;;;;;;12.81;nan;98429.31;4994070;28;20214;-71
2022/10/02 04:59:21;;;;;;;6.77;1.93;;;;;;;12.68;nan;98426.78;4994369;28;20205;-71
2022/10/02 05:02:06;;;;;;;6.07;1.93;;;;;;;12.68;nan;98429.44;4994388;28;20198;-71
2022/10/02 05:04:53;;;;;;;5.30;1.50;;;;;;;12.66;nan;98436.88;4994312;28;20195;-71
2022/10/02 05:07:44;;;;;;;3.93;1.50;;;;;;;12.61;nan;98434.84;4993969;28;20194;-70
2022/10/02 05:10:29;;;;;;;6.90;2.00;;;;;;;12.57;nan;98425.66;4994074;28;20231;-71
2022/10/02 05:13:20;;;;;;;5.43;2.00;;;;;;;12.61;nan;98434.84;4994192;28;20211;-71
2022/10/02 05:16:23;;;;;;;5.87;1.90;;;;;;;12.56;nan;98423.22;4994054;28;20203;-71
2022/10/02 05:19:02;;;;;;;6.63;1.70;;;;;;;12.51;nan;98415.91;4994102;28;20205;-70
2022/10/02 05:21:59;;;;;;;5.67;1.93;;;;;;;12.48;nan;98424.34;4994003;28;20226;-71
2022/10/02 05:24:46;;;;;;;5.80;1.50;;;;;;;12.48;nan;98420.88;4994188;28;20221;-71
2022/10/02 05:27:26;;;;;;;5.43;1.73;;;;;;;12.47;nan;98416.53;4994009;28;20203;-71
2022/10/02 05:30:05;;;;;;;5.33;1.60;;;;;;;12.42;nan;98417.22;4993925;28;20227;-71
2022/10/02 05:32:51;;;;;;;10.60;2.20;;;;;;;12.43;nan;98416.19;4993755;28;20201;-71
2022/10/02 05:35:36;;;;;;;7.17;1.40;;;;;;;12.42;nan;98424.41;4995898;28;20205;-71
2022/10/02 05:38:08;;;;;;;8.33;1.70;;;;;;;12.41;nan;98418.28;5013052;28;20237;-71
2022/10/02 05:40:53;;;;;;;5.63;1.57;;;;;;;12.41;nan;98423.59;4997783;28;20221;-71
2022/10/02 05:43:28;;;;;;;4.57;1.27;;;;;;;12.40;nan;98429.16;4997693;28;20192;-71
2022/10/02 05:45:58;;;;;;;3.87;1.37;;;;;;;12.40;nan;98432.66;4997607;28;20201;-71
2022/10/02 05:48:29;;;;;;;6.93;1.80;;;;;;;12.40;nan;98426.50;4997807;28;20207;-71
2022/10/02 05:51:05;;;;;;;6.20;1.60;;;;;;;12.36;nan;98423.47;5012711;28;20226;-71
2022/10/02 05:53:45;;;;;;;9.17;2.00;;;;;;;12.38;nan;98429.38;4997759;28;20201;-71
2022/10/02 05:56:21;;;;;;;3.40;1.43;;;;;;;12.40;nan;98426.50;4997750;28;20197;-71
2022/10/02 05:58:51;;;;;;;6.83;2.10;;;;;;;12.41;nan;98428.09;4997657;28;20606;-71
2022/10/02 06:01:31;;;;;;;6.43;1.77;;;;;;;12.42;nan;98435.91;4997524;28;20234;-70
2022/10/02 06:04:18;;;;;;;8.33;1.73;;;;;;;12.41;nan;98444.94;5012627;28;20194;-70
2022/10/02 06:06:52;;;;;;;7.10;2.07;;;;;;;12.42;nan;98435.91;5010505;28;20194;-70
2022/10/02 06:09:23;;;;;;;9.10;2.10;;;;;;;12.42;nan;98446.56;4997270;28;20190;-70
2022/10/02 06:11:56;;;;;;;7.13;1.90;;;;;;;12.42;nan;98448.41;4996945;28;20290;-71
2022/10/02 06:14:29;;;;;;;7.50;1.90;;;;;;;12.43;nan;98448.19;4997173;28;20206;-70
2022/10/02 06:17:00;;;;;;;6.03;1.90;;;;;;;12.44;nan;98449.81;4997332;28;20195;-70
2022/10/02 06:19:37;;;;;;;4.43;1.50;;;;;;;12.45;nan;98453.31;4996919;28;20558;-71
2022/10/02 06:22:13;;;;;;;4.73;1.87;;;;;;;12.47;nan;98449.38;4997256;28;20207;-70
2022/10/02 06:24:50;;;;;;;5.40;1.80;;;;;;;12.46;nan;98447.75;4996801;28;20219;-70
2022/10/02 06:27:37;;;;;;;6.50;1.53;;;;;;;12.47;nan;98438.72;5011948;28;20194;-70
2022/10/02 06:30:06;;;;;;;6.00;1.70;;;;;;;12.49;nan;98431.31;5010677;28;20574;-70
2022/10/02 06:32:47;;;;;;;6.40;1.83;;;;;;;12.52;nan;98427.41;4997036;28;20210;-71
2022/10/02 06:35:16;;;;;;;5.67;1.97;;;;;;;12.53;nan;98416.47;4996982;28;20207;-71
2022/10/02 06:38:11;;;;;;;5.83;2.20;;;;;;;12.54;nan;98431.47;4996502;28;20214;-70
2022/10/02 06:40:54;;;;;;;9.33;2.03;;;;;;;12.54;nan;98418.13;5012376;28;20226;-70
2022/10/02 06:43:43;;;;;;;10.83;2.40;;;;;;;12.55;nan;98406.41;5011935;28;20191;-70
2022/10/02 06:46:48;;;;;;;10.27;2.30;;;;;;;12.58;nan;98394.50;5011198;28;20210;-70
2022/10/02 06:49:39;;;;;;;7.07;2.33;;;;;;;12.53;nan;98397.81;4994166;28;20721;-70
2022/10/02 06:52:16;;;;;;;7.43;2.30;;;;;;;12.51;nan;98397.22;4994233;28;20701;-70
2022/10/02 06:54:55;;;;;;;8.20;2.40;;;;;;;12.52;nan;98398.84;4995599;28;20214;-70
2022/10/02 06:57:25;;;;;;;8.60;2.03;;;;;;;12.50;nan;98400.94;5011696;28;20201;-70
2022/10/02 07:00:15;;;;;;;5.37;1.90;;;;;;;12.52;nan;98400.72;4996984;28;20230;-70
2022/10/02 07:03:03;;;;;;;11.10;2.47;;;;;;;12.50;nan;98400.13;4996475;28;20198;-70
2022/10/02 07:05:35;;;;;;;6.67;2.10;;;;;;;12.51;nan;98394.56;4996058;28;20189;-70
2022/10/02 07:08:21;;;;;;;7.73;2.23;;;;;;;12.50;nan;98400.13;4995894;28;20688;-70
2022/10/02 07:11:20;;;;;;;7.17;2.00;;;;;;;12.49;nan;98396.66;4995855;28;20690;-71
2022/10/02 07:14:11;;;;;;;6.33;2.27;;;;;;;12.52;nan;98395.38;4996307;28;20191;-70
2022/10/02 07:16:49;;;;;;;6.83;2.23;;;;;;;12.50;nan;98382.28;4996220;28;20211;-70
2022/10/02 07:19:38;;;;;;;9.33;2.13;;;;;;;12.52;nan;98382.84;4995831;28;20195;-71
2022/10/02 07:22:19;;;;;;;8.83;2.23;;;;;;;12.53;nan;98376.47;5010464;28;20191;-70
2022/10/02 07:25:01;;;;;;;8.60;2.50;;;;;;;12.56;nan;98370.72;4996033;28;20223;-70
2022/10/02 07:27:52;;;;;;;10.87;3.50;;;;;;;12.58;nan;98371.31;5011032;28;20198;-70
2022/10/02 07:30:19;;;;;;;11.57;3.40;;;;;;;12.57;nan;98377.66;4995697;28;20270;-71
2022/10/02 07:33:03;;;;;;;11.20;3.67;;;;;;;12.61;nan;98365.50;4995746;28;20211;-70
2022/10/02 07:35:39;;;;;;;10.77;3.40;;;;;;;12.58;nan;98384.66;5010227;28;20199;-71
2022/10/02 07:38:23;;;;;;;12.50;3.37;;;;;;;12.72;nan;98355.94;4995502;28;20198;-70
2022/10/02 07:41:24;;;;;;;10.60;3.30;;;;;;;12.60;nan;98366.56;4995684;28;20251;-71
2022/10/02 07:43:56;;;;;;;6.57;3.00;;;;;;;12.71;nan;98363.13;5008482;28;20193;-71
2022/10/02 07:46:35;;;;;;;7.67;3.53;;;;;;;12.56;nan;98357.38;4995201;28;20219;-71
2022/10/02 07:49:01;;;;;;;9.97;2.73;;;;;;;12.55;nan;98360.25;4995597;28;20194;-71
2022/10/02 07:51:58;;;;;;;7.23;2.97;;;;;;;12.57;nan;98364.31;4995110;28;20722;-70
2022/10/02 07:54:47;;;;;;;9.07;2.93;;;;;;;12.60;nan;98363.88;4995516;28;20197;-71
2022/10/02 07:57:13;;;;;;;10.60;3.00;;;;;;;12.60;nan;98363.88;4995360;28;20201;-70
2022/10/02 07:59:42;;;;;;;6.10;2.43;;;;;;;12.62;nan;98363.66;4994297;28;20230;-70
2022/10/02 08:02:22;;;;;;;9.00;3.37;;;;;;;12.60;nan;98366.56;4995174;28;20212;-70
2022/10/02 08:04:49;;;;;;;9.77;3.30;;;;;;;12.62;nan;98361.00;4995224;28;20271;-71
2022/10/02 08:07:15;;;;;;;5.73;3.07;;;;;;;12.64;nan;98354.41;4995140;28;20219;-71
2022/10/02 08:09:47;;;;;;;9.03;3.43;;;;;;;12.63;nan;98355.44;4995024;28;20226;-71
2022/10/02 08:12:19;;;;;;;6.20;2.93;;;;;;;12.62;nan;98377.00;5010069;28;20230;-70
2022/10/02 08:14:49;;;;;;;5.77;2.60;;;;;;;12.59;nan;98369.44;4995037;28;20198;-71
2022/10/02 08:17:58;;;;;;;8.20;2.90;;;;;;;12.67;nan;98353.97;4994648;28;20665;-71
2022/10/02 08:20:43;;;;;;;7.73;3.03;;;;;;;12.66;100.00;98373.66;5090585;27;20555;-70
2022/10/02 08:23:36;;;;;;;9.17;3.20;;;;;;;12.74;100.00;98364.53;5091009;28;20195;-70
2022/10/02 08:26:16;;;;;;;10.63;3.20;;;;;;;12.80;100.00;98348.44;5090662;28;20642;-70
2022/10/02 08:29:04;;;;;;;9.37;2.97;;;;;;;12.88;100.00;98352.66;5090528;28;20553;-70
2022/10/02 08:31:34;;;;;;;9.87;3.17;;;;;;;12.96;100.00;98344.31;5091354;28;20233;-70
2022/10/02 08:34:27;;;;;;;7.57;2.50;;;;;;;12.95;100.00;98340.84;5090435;28;20661;-70
2022/10/02 08:37:05;;;;;;;8.90;2.73;;;;;;;13.02;100.00;98357.59;5089478;28;20727;-70
2022/10/02 08:40:00;;;;;;;7.13;2.60;;;;;;;12.91;100.00;98357.53;5090435;28;20219;-70
2022/10/02 08:43:11;;;;;;;8.23;2.90;;;;;;;13.13;100.00;98351.50;5090611;28;20593;-70
2022/10/02 08:46:15;;;;;;;6.50;2.33;;;;;;;13.11;100.00;98342.91;5090253;28;20595;-70
2022/10/02 08:48:54;;;;;;;7.13;2.60;;;;;;;13.08;100.00;98342.53;5090176;28;20577;-70
2022/10/02 08:51:39;;;;;;;5.37;2.27;;;;;;;13.13;100.00;98330.16;5090177;28;20703;-70
2022/10/02 08:54:50;;;;;;;8.50;2.50;;;;;;;13.10;100.00;98327.94;5090215;28;20192;-70
2022/10/02 08:57:36;;;;;;;10.67;2.73;;;;;;;13.34;100.00;98323.47;5084370;28;20208;-70
2022/10/02 09:00:13;;;;;;;7.90;2.97;;;;;;;13.32;100.00;98334.38;5089731;28;20235;-70
2022/10/02 09:03:09;;;;;;;7.20;2.70;;;;;;;13.33;100.00;98316.47;5089937;28;20184;-70
2022/10/02 09:05:47;;;;;;;12.57;3.10;;;;;;;13.43;100.00;98319.41;5090170;28;20184;-70
2022/10/02 09:09:10;;;;;;;8.67;3.10;;;;;;;13.48;100.00;98314.19;5090023;28;20215;-70
2022/10/02 09:12:02;;;;;;;6.83;2.67;;;;;;;13.66;100.00;98317.56;5073246;28;20224;-70
2022/10/02 09:14:42;;;;;;;6.67;2.40;;;;;;;13.56;100.00;98311.97;5089685;28;20191;-70
2022/10/02 09:17:33;;;;;;;7.10;2.50;;;;;;;13.51;100.00;98303.84;5089959;28;20249;-70
2022/10/02 09:20:12;;;;;;;7.00;2.80;;;;;;;13.54;100.00;98298.06;5089285;28;20232;-70
2022/10/02 09:23:09;;;;;;;7.57;2.77;;;;;;;13.54;100.00;98316.75;5089383;28;20199;-70
2022/10/02 09:25:54;;;;;;;5.47;3.17;;;;;;;13.47;100.00;98301.88;5090003;28;20206;-70
2022/10/02 09:28:45;;;;;;;5.70;2.83;;;;;;;13.45;100.00;98311.97;5089640;28;20189;-70
2022/10/02 09:31:39;;;;;;;7.10;3.13;;;;;;;13.60;100.00;98312.31;5078499;28;20676;-70
2022/10/02 09:34:13;;;;;;;8.57;3.30;;;;;;;13.71;100.00;98315.00;5074843;28;20196;-70
2022/10/02 09:37:03;;;;;;;6.93;2.70;;;;;;;13.74;100.00;98311.88;5075790;28;20188;-70
2022/10/02 09:40:00;;;;;;;7.90;2.90;;;;;;;13.76;100.00;98312.47;5074442;28;20217;-70
2022/10/02 09:42:46;;;;;;;8.40;3.50;;;;;;;13.87;100.00;98305.47;5060019;28;20197;-70
2022/10/02 09:46:09;;;;;;;8.07;2.80;;;;;;;13.66;100.00;98311.41;5076309;28;20256;-70
2022/10/02 09:48:35;;;;;;;5.73;2.60;;;;;;;13.61;100.00;98304.09;5071916;28;20216;-71
2022/10/02 09:51:23;;;;;;;5.90;2.87;;;;;;;13.72;100.00;98313.97;5075828;28;20224;-71
2022/10/02 09:54:10;;;;;;;5.73;2.67;;;;;;;13.69;100.00;98309.09;5074683;28;20265;-70
2022/10/02 09:56:55;;;;;;;6.90;3.37;;;;;;;13.51;100.00;98314.53;5074512;28;20193;-70
2022/10/02 09:59:47;;;;;;;4.80;2.90;;;;;;;13.40;100.00;98315.34;5075007;28;20232;-70
2022/10/02 10:02:47;;;;;;;5.00;2.40;;;;;;;13.53;100.00;98328.50;5074905;28;20193;-70
2022/10/02 10:05:51;;;;;;;6.43;2.63;;;;;;;13.39;100.00;98328.91;5075207;28;20605;-70
2022/10/02 10:08:30;;;;;;;6.03;3.67;;;;;;;13.51;100.00;98322.53;5075418;28;20270;-70
2022/10/02 10:11:05;;;;;;;5.80;3.27;;;;;;;13.53;100.00;98325.00;5075203;28;20231;-70
2022/10/02 10:13:54;;;;;;;5.07;2.93;;;;;;;13.57;100.00;98323.50;5075279;28;20204;-70
2022/10/02 10:16:21;;;;;;;3.10;2.80;;;;;;;13.34;100.00;98324.25;5075061;28;20555;-70
2022/10/02 10:19:18;;;;;;;3.93;2.63;;;;;;;13.49;100.00;98339.84;5075067;28;20226;-70
2022/10/02 10:21:52;;;;;;;5.60;2.43;;;;;;;13.32;100.00;98337.03;5075154;28;20261;-70
2022/10/02 10:24:52;;;;;;;4.60;2.20;;;;;;;13.41;100.00;98337.50;5075208;28;20196;-70
2022/10/02 10:27:49;;;;;;;2.53;1.90;;;;;;;13.33;100.00;98329.81;5075732;28;20187;-70
2022/10/02 10:30:31;;;;;;;2.43;1.57;;;;;;;13.49;100.00;98311.28;5075033;28;20223;-70
2022/10/02 10:33:23;;;;;;;3.00;1.83;;;;;;;13.52;100.00;98312.69;5074694;28;20697;-70
2022/10/02 10:36:01;;;;;;;2.83;1.60;;;;;;;13.38;100.00;98320.09;5059198;28;20192;-70
2022/10/02 10:38:33;;;;;;;3.80;1.90;;;;;;;13.62;100.00;98324.41;5074864;28;20188;-70
2022/10/02 10:41:36;;;;;;;4.10;1.70;;;;;;;13.53;100.00;98316.97;5074157;28;20232;-70
2022/10/02 10:44:24;;;;;;;3.80;2.03;;;;;;;13.52;100.00;98339.41;5072604;28;20187;-70
2022/10/02 10:47:07;;;;;;;2.73;1.37;;;;;;;13.61;100.00;98338.00;5074058;28;20208;-70
2022/10/02 10:50:05;;;;;;;2.27;1.40;;;;;;;13.48;100.00;98349.72;5073170;28;20192;-70
2022/10/02 10:53:03;;;;;;;2.03;1.40;;;;;;;13.38;100.00;98354.00;5074438;28;20254;-70
2022/10/02 10:55:29;;;;;;;2.70;1.40;;;;;;;13.39;100.00;98351.09;5073778;28;20207;-70
2022/10/02 10:58:13;;;;;;;3.63;1.63;;;;;;;13.43;100.00;98343.44;5074145;28;20212;-70
2022/10/02 11:01:08;;;;;;;2.00;1.77;;;;;;;13.48;100.00;98343.56;5074222;28;20642;-70
2022/10/02 11:03:53;;;;;;;2.60;1.50;;;;;;;13.43;100.00;98336.22;5074346;28;20246;-70
2022/10/02 11:06:37;;;;;;;1.70;1.50;;;;;;;13.31;100.00;98353.28;5074129;28;20196;-70
2022/10/02 11:09:12;;;;;;;2.40;1.53;;;;;;;13.38;100.00;98359.34;5074225;28;20184;-70
2022/10/02 11:12:02;;;;;;;1.70;1.60;;;;;;;13.49;100.00;98356.69;5074113;28;20233;-70
2022/10/02 11:14:59;;;;;;;1.20;1.10;;;;;;;13.47;100.00;98360.66;5072861;28;20185;-70
2022/10/02 11:17:38;;;;;;;1.27;1.10;;;;;;;13.46;100.00;98365.16;5073025;28;20191;-70
2022/10/02 11:20:30;;;;;;;2.43;1.30;;;;;;;13.57;100.00;98369.69;5072151;28;20230;-70
2022/10/02 11:23:14;;;;;;;1.20;1.10;;;;;;;13.61;100.00;98368.19;5072587;28;20192;-70
2022/10/02 11:26:07;;;;;;;1.30;1.20;;;;;;;13.72;100.00;98366.59;5073668;28;20195;-70
2022/10/02 11:28:46;;;;;;;1.83;1.40;;;;;;;13.70;100.00;98358.78;5072954;28;20193;-70
2022/10/02 11:31:31;;;;;;;2.27;1.40;;;;;;;13.76;100.00;98365.91;5073836;28;20285;-70
2022/10/02 11:34:25;;;;;;;1.60;1.50;;;;;;;13.74;100.00;98354.63;5072282;28;20651;-71
2022/10/02 11:37:06;;;;;;;1.33;1.10;;;;;;;13.91;100.00;98352.06;5072395;28;20189;-70
2022/10/02 11:40:03;;;;;;;1.13;1.03;;;;;;;13.67;100.00;98345.91;5073182;28;20208;-70
2022/10/02 11:42:45;;;;;;;1.47;0.97;;;;;;;13.62;100.00;98353.78;5072213;28;20692;-70
2022/10/02 11:45:14;;;;;;;0.90;0.90;;;;;;;13.57;100.00;98356.34;5073620;28;20189;-70
2022/10/02 11:48:04;;;;;;;0.93;0.80;;;;;;;13.55;100.00;98354.94;5073525;28;20208;-70
2022/10/02 11:51:27;;;;;;;0.80;0.80;;;;;;;13.46;100.00;98351.81;5073805;28;20590;-71
2022/10/02 11:54:43;;;;;;;2.67;1.03;;;;;;;13.44;100.00;98356.56;5051122;28;20216;-70
2022/10/02 11:57:13;;;;;;;0.90;0.90;;;;;;;13.42;100.00;98344.47;5039595;28;20304;-70
2022/10/02 11:59:39;;;;;;;0.70;0.70;;;;;;;13.45;100.00;98346.69;5071335;28;20229;-70
2022/10/02 12:02:12;;;;;;;1.73;0.70;;;;;;;13.46;100.00;98342.97;5073148;28;20208;-70
2022/10/02 12:05:10;;;;;;;0.60;0.60;;;;;;;13.55;100.00;98352.28;5073346;28;20197;-70
2022/10/02 12:07:39;;;;;;;0.83;0.80;;;;;;;13.52;100.00;98345.53;5071734;28;20211;-70
2022/10/02 12:10:34;;;;;;;0.70;0.70;;;;;;;13.65;100.00;98342.66;5073046;28;20220;-70
2022/10/02 12:13:14;;;;;;;1.57;0.80;;;;;;;13.62;100.00;98332.41;5073460;28;20192;-70
2022/10/02 12:15:59;;;;;;;0.80;0.80;;;;;;;13.81;100.00;98335.81;5073125;28;20209;-70
2022/10/02 12:18:55;;;;;;;2.33;1.07;;;;;;;13.84;100.00;98333.47;5073751;28;20219;-70
2022/10/02 12:28:13;;;;;;;0.60;0.60;;;;;;;13.59;100.00;98350.78;5066283;28;20607;-70
2022/10/02 12:31:10;;;;;;;0.40;0.40;;;;;;;13.46;100.00;98346.47;5072032;28;20231;-70
2022/10/02 12:34:05;;;;;;;0.60;0.50;;;;;;;13.38;100.00;98341.44;5072787;28;20192;-70
2022/10/02 12:36:43;;;;;;;0.63;0.60;;;;;;;13.29;100.00;98350.03;5053151;28;20710;-70
2022/10/02 12:39:32;;;;;;;0.50;0.50;;;;;;;13.27;100.00;98368.13;5073778;28;20204;-70
2022/10/02 12:42:25;;;;;;;1.03;0.60;;;;;;;13.28;100.00;98359.91;5072665;28;20204;-70
2022/10/02 12:45:07;;;;;;;1.03;0.70;;;;;;;13.37;100.00;98353.19;5071772;28;20208;-70
2022/10/02 12:47:42;;;;;;;0.93;0.50;;;;;;;13.40;100.00;98335.88;5072993;28;20185;-69
2022/10/02 12:50:28;;;;;;;1.90;0.80;;;;;;;13.31;100.00;98351.44;5072890;28;20235;-70
2022/10/02 12:53:49;;;;;;;1.17;0.70;;;;;;;13.25;100.00;98363.00;5072229;28;20658;-69
2022/10/02 12:56:41;;;;;;;1.20;1.00;;;;;;;13.19;100.00;98347.91;5034378;28;20759;-69
2022/10/02 12:59:36;;;;;;;1.40;1.30;;;;;;;13.13;100.00;98367.53;5033951;28;20189;-69
2022/10/02 13:02:31;;;;;;;1.00;1.00;;;;;;;13.16;100.00;98374.25;5071821;28;20195;-69